sensor_id;sensor_type;location;lat;lon;timestamp;P1;durP1;ratioP1;P2;durP2;ratioP2
3054;SDS011;1537;52.018;8.542;2022-10-10T00:00:22;10.10;;;5.40;;
3054;SDS011;1537;52.018;8.542;2022-10-10T00:03:46;9.30;;;5.57;;
3054;SDS011;1537;52.018;8.542;2022-10-10T00:07:11;7.20;;;5.20;;
3054;SDS011;1537;52.018;8.542;2022-10-10T00:10:35;9.87;;;5.40;;
3054;SDS011;1537;52.018;8.542;2022-10-10T00:13:59;10.63;;;6.70;;
3054;SDS011;1537;52.018;8.542;2022-10-10T00:17:23;10.17;;;5.27;;
3054;SDS011;1537;52.018;8.542;2022-10-10T00:20:48;7.20;;;5.50;;
3054;SDS011;1537;52.018;8.542;2022-10-10T00:24:13;7.63;;;5.97;;
3054;SDS011;1537;52.018;8.542;2022-10-10T00:27:37;12.83;;;6.20;;
3054;SDS011;1537;52.018;8.542;2022-10-10T00:31:01;8.37;;;4.90;;
3054;SDS011;1537;52.018;8.542;2022-10-10T00:34:24;7.97;;;5.03;;
3054;SDS011;1537;52.018;8.542;2022-10-10T00:37:48;8.67;;;5.73;;
3054;SDS011;1537;52.018;8.542;2022-10-10T00:41:13;7.83;;;4.40;;
3054;SDS011;1537;52.018;8.542;2022-10-10T00:44:37;7.20;;;5.10;;
3054;SDS011;1537;52.018;8.542;2022-10-10T00:48:02;8.63;;;4.90;;
3054;SDS011;1537;52.018;8.542;2022-10-10T00:51:28;10.83;;;5.00;;
3054;SDS011;1537;52.018;8.542;2022-10-10T00:54:52;5.83;;;4.43;;
3054;SDS011;1537;52.018;8.542;2022-10-10T00:58:17;7.03;;;4.47;;
3054;SDS011;1537;52.018;8.542;2022-10-10T01:01:41;6.87;;;4.90;;
3054;SDS011;1537;52.018;8.542;2022-10-10T01:05:05;8.37;;;4.90;;
3054;SDS011;1537;52.018;8.542;2022-10-10T01:08:29;8.50;;;5.20;;
3054;SDS011;1537;52.018;8.542;2022-10-10T01:11:54;6.83;;;4.00;;
3054;SDS011;1537;52.018;8.542;2022-10-10T01:15:29;8.00;;;4.53;;
3054;SDS011;1537;52.018;8.542;2022-10-10T01:19:05;8.30;;;4.80;;
3054;SDS011;1537;52.018;8.542;2022-10-10T01:22:47;12.07;;;4.57;;
3054;SDS011;1537;52.018;8.542;2022-10-10T01:26:36;6.13;;;4.40;;
3054;SDS011;1537;52.018;8.542;2022-10-10T01:30:20;6.10;;;3.93;;
3054;SDS011;1537;52.018;8.542;2022-10-10T01:33:48;6.13;;;4.63;;
3054;SDS011;1537;52.018;8.542;2022-10-10T01:37:17;6.70;;;4.60;;
3054;SDS011;1537;52.018;8.542;2022-10-10T01:40:44;5.57;;;4.17;;
3054;SDS011;1537;52.018;8.542;2022-10-10T01:44:12;6.80;;;4.70;;
3054;SDS011;1537;52.018;8.542;2022-10-10T01:47:42;5.20;;;4.00;;
3054;SDS011;1537;52.018;8.542;2022-10-10T01:51:19;6.57;;;4.20;;
3054;SDS011;1537;52.018;8.542;2022-10-10T01:54:55;9.00;;;4.60;;
3054;SDS011;1537;52.018;8.542;2022-10-10T01:58:41;6.10;;;4.30;;
3054;SDS011;1537;52.018;8.542;2022-10-10T02:02:14;5.90;;;4.37;;
3054;SDS011;1537;52.018;8.542;2022-10-10T02:05:48;6.47;;;4.23;;
3054;SDS011;1537;52.018;8.542;2022-10-10T02:09:18;5.97;;;3.90;;
3054;SDS011;1537;52.018;8.542;2022-10-10T02:12:48;7.40;;;3.80;;
3054;SDS011;1537;52.018;8.542;2022-10-10T02:16:14;6.60;;;4.07;;
3054;SDS011;1537;52.018;8.542;2022-10-10T02:19:41;5.30;;;3.80;;
3054;SDS011;1537;52.018;8.542;2022-10-10T02:23:08;6.20;;;4.53;;
3054;SDS011;1537;52.018;8.542;2022-10-10T02:26:34;7.63;;;4.77;;
3054;SDS011;1537;52.018;8.542;2022-10-10T02:30:00;10.07;;;4.50;;
3054;SDS011;1537;52.018;8.542;2022-10-10T02:33:27;9.87;;;5.10;;
3054;SDS011;1537;52.018;8.542;2022-10-10T02:36:55;7.80;;;4.47;;
3054;SDS011;1537;52.018;8.542;2022-10-10T02:40:23;18.83;;;5.17;;
3054;SDS011;1537;52.018;8.542;2022-10-10T02:43:50;5.90;;;4.00;;
3054;SDS011;1537;52.018;8.542;2022-10-10T02:47:14;6.50;;;4.73;;
3054;SDS011;1537;52.018;8.542;2022-10-10T02:50:38;5.23;;;3.87;;
3054;SDS011;1537;52.018;8.542;2022-10-10T02:54:01;6.20;;;4.07;;
3054;SDS011;1537;52.018;8.542;2022-10-10T02:57:26;5.80;;;4.60;;
3054;SDS011;1537;52.018;8.542;2022-10-10T03:00:50;7.13;;;4.97;;
3054;SDS011;1537;52.018;8.542;2022-10-10T03:04:14;6.60;;;4.10;;
3054;SDS011;1537;52.018;8.542;2022-10-10T03:07:38;10.03;;;4.77;;
3054;SDS011;1537;52.018;8.542;2022-10-10T03:11:01;7.20;;;4.50;;
3054;SDS011;1537;52.018;8.542;2022-10-10T03:14:26;7.77;;;4.50;;
3054;SDS011;1537;52.018;8.542;2022-10-10T03:17:50;5.37;;;3.93;;
3054;SDS011;1537;52.018;8.542;2022-10-10T03:21:13;7.90;;;4.37;;
3054;SDS011;1537;52.018;8.542;2022-10-10T03:24:37;9.07;;;4.57;;
3054;SDS011;1537;52.018;8.542;2022-10-10T03:28:01;6.00;;;4.10;;
3054;SDS011;1537;52.018;8.542;2022-10-10T03:31:26;7.80;;;4.43;;
3054;SDS011;1537;52.018;8.542;2022-10-10T03:34:49;7.87;;;4.87;;
3054;SDS011;1537;52.018;8.542;2022-10-10T03:38:13;7.60;;;4.90;;
3054;SDS011;1537;52.018;8.542;2022-10-10T03:41:37;6.13;;;4.60;;
3054;SDS011;1537;52.018;8.542;2022-10-10T03:45:01;6.07;;;4.73;;
3054;SDS011;1537;52.018;8.542;2022-10-10T03:48:26;7.83;;;4.27;;
3054;SDS011;1537;52.018;8.542;2022-10-10T03:51:49;9.00;;;4.40;;
3054;SDS011;1537;52.018;8.542;2022-10-10T03:55:14;5.17;;;3.90;;
3054;SDS011;1537;52.018;8.542;2022-10-10T03:58:38;7.07;;;4.30;;
3054;SDS011;1537;52.018;8.542;2022-10-10T04:02:01;10.47;;;6.63;;
3054;SDS011;1537;52.018;8.542;2022-10-10T04:05:26;6.57;;;4.27;;
3054;SDS011;1537;52.018;8.542;2022-10-10T04:08:50;7.30;;;4.80;;
3054;SDS011;1537;52.018;8.542;2022-10-10T04:12:13;8.13;;;5.03;;
3054;SDS011;1537;52.018;8.542;2022-10-10T04:15:37;9.00;;;4.60;;
3054;SDS011;1537;52.018;8.542;2022-10-10T04:19:01;8.40;;;4.00;;
3054;SDS011;1537;52.018;8.542;2022-10-10T04:22:26;6.83;;;4.03;;
3054;SDS011;1537;52.018;8.542;2022-10-10T04:26:10;9.73;;;5.00;;
3054;SDS011;1537;52.018;8.542;2022-10-10T04:29:33;6.70;;;4.63;;
3054;SDS011;1537;52.018;8.542;2022-10-10T04:32:57;8.17;;;4.27;;
3054;SDS011;1537;52.018;8.542;2022-10-10T04:36:20;7.67;;;4.30;;
3054;SDS011;1537;52.018;8.542;2022-10-10T04:39:45;6.93;;;4.20;;
3054;SDS011;1537;52.018;8.542;2022-10-10T04:43:09;4.97;;;3.80;;
3054;SDS011;1537;52.018;8.542;2022-10-10T04:46:32;5.53;;;3.60;;
3054;SDS011;1537;52.018;8.542;2022-10-10T04:49:56;10.10;;;4.50;;
3054;SDS011;1537;52.018;8.542;2022-10-10T04:53:19;6.63;;;4.10;;
3054;SDS011;1537;52.018;8.542;2022-10-10T04:56:45;6.00;;;3.90;;
3054;SDS011;1537;52.018;8.542;2022-10-10T05:00:09;8.07;;;3.60;;
3054;SDS011;1537;52.018;8.542;2022-10-10T05:03:33;5.43;;;3.90;;
3054;SDS011;1537;52.018;8.542;2022-10-10T05:06:56;5.30;;;3.27;;
3054;SDS011;1537;52.018;8.542;2022-10-10T05:10:20;7.43;;;3.73;;
3054;SDS011;1537;52.018;8.542;2022-10-10T05:13:45;8.90;;;4.10;;
3054;SDS011;1537;52.018;8.542;2022-10-10T05:17:10;12.07;;;4.40;;
3054;SDS011;1537;52.018;8.542;2022-10-10T05:20:34;5.90;;;3.77;;
3054;SDS011;1537;52.018;8.542;2022-10-10T05:23:58;10.10;;;4.63;;
3054;SDS011;1537;52.018;8.542;2022-10-10T05:27:21;8.73;;;4.80;;
3054;SDS011;1537;52.018;8.542;2022-10-10T05:30:46;10.27;;;5.13;;
3054;SDS011;1537;52.018;8.542;2022-10-10T05:34:12;9.80;;;6.47;;
3054;SDS011;1537;52.018;8.542;2022-10-10T05:37:36;8.00;;;5.77;;
3054;SDS011;1537;52.018;8.542;2022-10-10T05:41:00;8.60;;;5.47;;
3054;SDS011;1537;52.018;8.542;2022-10-10T05:44:23;10.60;;;5.80;;
3054;SDS011;1537;52.018;8.542;2022-10-10T05:47:48;8.33;;;6.53;;
3054;SDS011;1537;52.018;8.542;2022-10-10T05:51:12;12.43;;;7.23;;
3054;SDS011;1537;52.018;8.542;2022-10-10T05:54:36;7.30;;;5.63;;
3054;SDS011;1537;52.018;8.542;2022-10-10T05:57:59;8.93;;;6.00;;
3054;SDS011;1537;52.018;8.542;2022-10-10T06:01:23;10.73;;;5.80;;
3054;SDS011;1537;52.018;8.542;2022-10-10T06:04:48;11.43;;;5.30;;
3054;SDS011;1537;52.018;8.542;2022-10-10T06:08:11;7.67;;;5.80;;
3054;SDS011;1537;52.018;8.542;2022-10-10T06:11:35;6.00;;;4.90;;
3054;SDS011;1537;52.018;8.542;2022-10-10T06:14:59;8.13;;;5.70;;
3054;SDS011;1537;52.018;8.542;2022-10-10T06:18:24;9.00;;;5.63;;
3054;SDS011;1537;52.018;8.542;2022-10-10T06:21:49;9.37;;;5.17;;
3054;SDS011;1537;52.018;8.542;2022-10-10T06:25:15;10.17;;;6.17;;
3054;SDS011;1537;52.018;8.542;2022-10-10T06:29:08;9.90;;;5.40;;
3054;SDS011;1537;52.018;8.542;2022-10-10T06:32:44;15.40;;;7.60;;
3054;SDS011;1537;52.018;8.542;2022-10-10T06:36:09;19.47;;;8.00;;
3054;SDS011;1537;52.018;8.542;2022-10-10T06:39:38;17.63;;;9.00;;
3054;SDS011;1537;52.018;8.542;2022-10-10T06:43:01;28.43;;;14.40;;
3054;SDS011;1537;52.018;8.542;2022-10-10T06:46:26;39.57;;;20.23;;
3054;SDS011;1537;52.018;8.542;2022-10-10T06:49:50;40.23;;;18.73;;
3054;SDS011;1537;52.018;8.542;2022-10-10T06:53:14;25.47;;;17.27;;
3054;SDS011;1537;52.018;8.542;2022-10-10T06:56:39;13.57;;;8.23;;
3054;SDS011;1537;52.018;8.542;2022-10-10T07:00:03;13.10;;;7.40;;
3054;SDS011;1537;52.018;8.542;2022-10-10T07:03:28;10.03;;;5.60;;
3054;SDS011;1537;52.018;8.542;2022-10-10T07:06:52;10.07;;;4.97;;
3054;SDS011;1537;52.018;8.542;2022-10-10T07:10:15;11.47;;;5.53;;
3054;SDS011;1537;52.018;8.542;2022-10-10T07:13:40;9.70;;;5.70;;
3054;SDS011;1537;52.018;8.542;2022-10-10T07:17:04;13.43;;;5.90;;
3054;SDS011;1537;52.018;8.542;2022-10-10T07:20:28;9.77;;;5.77;;
3054;SDS011;1537;52.018;8.542;2022-10-10T07:23:51;8.63;;;5.57;;
3054;SDS011;1537;52.018;8.542;2022-10-10T07:27:15;11.20;;;6.03;;
3054;SDS011;1537;52.018;8.542;2022-10-10T07:30:41;10.77;;;5.43;;
3054;SDS011;1537;52.018;8.542;2022-10-10T07:34:07;9.43;;;5.03;;
3054;SDS011;1537;52.018;8.542;2022-10-10T07:37:31;12.30;;;4.90;;
3054;SDS011;1537;52.018;8.542;2022-10-10T07:40:55;6.40;;;3.90;;
3054;SDS011;1537;52.018;8.542;2022-10-10T07:44:18;8.93;;;4.03;;
3054;SDS011;1537;52.018;8.542;2022-10-10T07:47:44;7.17;;;3.93;;
3054;SDS011;1537;52.018;8.542;2022-10-10T07:51:07;5.13;;;2.93;;
3054;SDS011;1537;52.018;8.542;2022-10-10T07:54:32;10.90;;;4.10;;
3054;SDS011;1537;52.018;8.542;2022-10-10T07:57:59;7.00;;;3.53;;
3054;SDS011;1537;52.018;8.542;2022-10-10T08:01:24;12.67;;;3.87;;
3054;SDS011;1537;52.018;8.542;2022-10-10T08:04:49;5.60;;;3.17;;
3054;SDS011;1537;52.018;8.542;2022-10-10T08:08:13;11.70;;;3.60;;
3054;SDS011;1537;52.018;8.542;2022-10-10T08:11:37;6.90;;;3.93;;
3054;SDS011;1537;52.018;8.542;2022-10-10T08:15:03;9.67;;;3.63;;
3054;SDS011;1537;52.018;8.542;2022-10-10T08:18:28;11.40;;;5.67;;
3054;SDS011;1537;52.018;8.542;2022-10-10T08:21:53;9.10;;;4.27;;
3054;SDS011;1537;52.018;8.542;2022-10-10T08:25:17;8.80;;;3.77;;
3054;SDS011;1537;52.018;8.542;2022-10-10T08:28:41;8.70;;;3.90;;
3054;SDS011;1537;52.018;8.542;2022-10-10T08:32:05;9.70;;;4.00;;
3054;SDS011;1537;52.018;8.542;2022-10-10T08:35:28;6.17;;;3.53;;
3054;SDS011;1537;52.018;8.542;2022-10-10T08:38:55;5.57;;;3.47;;
3054;SDS011;1537;52.018;8.542;2022-10-10T08:42:25;11.70;;;4.40;;
3054;SDS011;1537;52.018;8.542;2022-10-10T08:45:53;8.53;;;4.30;;
3054;SDS011;1537;52.018;8.542;2022-10-10T08:49:22;7.40;;;3.97;;
3054;SDS011;1537;52.018;8.542;2022-10-10T08:52:54;6.20;;;3.57;;
3054;SDS011;1537;52.018;8.542;2022-10-10T08:56:25;10.70;;;4.03;;
3054;SDS011;1537;52.018;8.542;2022-10-10T08:59:52;9.23;;;4.63;;
3054;SDS011;1537;52.018;8.542;2022-10-10T09:03:23;7.67;;;4.27;;
3054;SDS011;1537;52.018;8.542;2022-10-10T09:06:55;8.20;;;5.20;;
3054;SDS011;1537;52.018;8.542;2022-10-10T09:10:31;11.23;;;4.33;;
3054;SDS011;1537;52.018;8.542;2022-10-10T09:14:05;8.00;;;4.50;;
3054;SDS011;1537;52.018;8.542;2022-10-10T09:17:40;9.37;;;4.40;;
3054;SDS011;1537;52.018;8.542;2022-10-10T09:21:10;10.27;;;4.30;;
3054;SDS011;1537;52.018;8.542;2022-10-10T09:24:39;10.80;;;4.73;;
3054;SDS011;1537;52.018;8.542;2022-10-10T09:28:10;7.87;;;4.63;;
3054;SDS011;1537;52.018;8.542;2022-10-10T09:31:40;9.30;;;5.20;;
3054;SDS011;1537;52.018;8.542;2022-10-10T09:35:11;11.07;;;5.40;;
3054;SDS011;1537;52.018;8.542;2022-10-10T09:38:40;12.90;;;5.33;;
3054;SDS011;1537;52.018;8.542;2022-10-10T09:42:09;9.33;;;5.30;;
3054;SDS011;1537;52.018;8.542;2022-10-10T09:45:35;9.23;;;4.87;;
3054;SDS011;1537;52.018;8.542;2022-10-10T09:49:05;9.80;;;5.17;;
3054;SDS011;1537;52.018;8.542;2022-10-10T09:52:30;8.70;;;4.60;;
3054;SDS011;1537;52.018;8.542;2022-10-10T09:55:54;12.23;;;4.40;;
3054;SDS011;1537;52.018;8.542;2022-10-10T10:03:08;8.67;;;4.60;;
3054;SDS011;1537;52.018;8.542;2022-10-10T10:06:36;8.83;;;5.07;;
3054;SDS011;1537;52.018;8.542;2022-10-10T10:10:01;7.40;;;4.83;;
3054;SDS011;1537;52.018;8.542;2022-10-10T10:13:34;10.70;;;5.17;;
3054;SDS011;1537;52.018;8.542;2022-10-10T10:17:04;8.87;;;4.13;;
3054;SDS011;1537;52.018;8.542;2022-10-10T10:20:30;10.83;;;4.63;;
3054;SDS011;1537;52.018;8.542;2022-10-10T10:23:58;9.63;;;4.90;;
3054;SDS011;1537;52.018;8.542;2022-10-10T10:27:23;7.17;;;4.13;;
3054;SDS011;1537;52.018;8.542;2022-10-10T10:30:50;13.60;;;4.73;;
3054;SDS011;1537;52.018;8.542;2022-10-10T10:34:22;12.37;;;3.80;;
3054;SDS011;1537;52.018;8.542;2022-10-10T10:38:13;8.70;;;4.20;;
3054;SDS011;1537;52.018;8.542;2022-10-10T10:41:48;9.37;;;4.47;;
3054;SDS011;1537;52.018;8.542;2022-10-10T10:45:19;7.60;;;3.37;;
3054;SDS011;1537;52.018;8.542;2022-10-10T10:48:54;6.50;;;3.53;;
3054;SDS011;1537;52.018;8.542;2022-10-10T10:52:35;8.93;;;4.03;;
3054;SDS011;1537;52.018;8.542;2022-10-10T10:56:11;8.90;;;3.17;;
3054;SDS011;1537;52.018;8.542;2022-10-10T10:59:48;8.93;;;3.30;;
3054;SDS011;1537;52.018;8.542;2022-10-10T11:03:45;7.60;;;3.53;;
3054;SDS011;1537;52.018;8.542;2022-10-10T11:07:33;8.87;;;3.23;;
3054;SDS011;1537;52.018;8.542;2022-10-10T11:11:11;11.07;;;3.37;;
3054;SDS011;1537;52.018;8.542;2022-10-10T11:14:53;9.50;;;3.70;;
3054;SDS011;1537;52.018;8.542;2022-10-10T11:18:21;8.40;;;3.60;;
3054;SDS011;1537;52.018;8.542;2022-10-10T11:21:52;6.73;;;3.30;;
3054;SDS011;1537;52.018;8.542;2022-10-10T11:25:22;6.60;;;2.90;;
3054;SDS011;1537;52.018;8.542;2022-10-10T11:28:50;8.63;;;4.20;;
3054;SDS011;1537;52.018;8.542;2022-10-10T11:32:20;11.90;;;3.53;;
3054;SDS011;1537;52.018;8.542;2022-10-10T11:35:51;5.73;;;2.90;;
3054;SDS011;1537;52.018;8.542;2022-10-10T11:39:19;9.53;;;3.73;;
3054;SDS011;1537;52.018;8.542;2022-10-10T11:42:47;6.37;;;2.63;;
3054;SDS011;1537;52.018;8.542;2022-10-10T11:46:23;7.90;;;2.87;;
3054;SDS011;1537;52.018;8.542;2022-10-10T11:49:53;6.27;;;3.30;;
3054;SDS011;1537;52.018;8.542;2022-10-10T11:53:21;11.13;;;3.67;;
3054;SDS011;1537;52.018;8.542;2022-10-10T11:56:52;11.97;;;3.80;;
3054;SDS011;1537;52.018;8.542;2022-10-10T12:00:19;16.80;;;4.60;;
3054;SDS011;1537;52.018;8.542;2022-10-10T12:03:43;8.47;;;3.33;;
3054;SDS011;1537;52.018;8.542;2022-10-10T12:07:10;7.93;;;3.47;;
3054;SDS011;1537;52.018;8.542;2022-10-10T12:10:39;11.57;;;4.00;;
3054;SDS011;1537;52.018;8.542;2022-10-10T12:14:08;8.77;;;3.97;;
3054;SDS011;1537;52.018;8.542;2022-10-10T12:17:38;7.90;;;3.23;;
3054;SDS011;1537;52.018;8.542;2022-10-10T12:21:05;6.57;;;3.07;;
3054;SDS011;1537;52.018;8.542;2022-10-10T12:24:32;8.43;;;3.30;;
3054;SDS011;1537;52.018;8.542;2022-10-10T12:28:04;9.20;;;3.30;;
3054;SDS011;1537;52.018;8.542;2022-10-10T12:31:44;13.13;;;3.50;;
3054;SDS011;1537;52.018;8.542;2022-10-10T12:43:00;12.70;;;3.30;;
3054;SDS011;1537;52.018;8.542;2022-10-10T12:46:41;8.33;;;3.50;;
3054;SDS011;1537;52.018;8.542;2022-10-10T12:50:14;8.87;;;3.50;;
3054;SDS011;1537;52.018;8.542;2022-10-10T12:53:43;8.67;;;3.57;;
3054;SDS011;1537;52.018;8.542;2022-10-10T12:57:13;6.80;;;3.00;;
3054;SDS011;1537;52.018;8.542;2022-10-10T13:00:42;6.10;;;3.03;;
3054;SDS011;1537;52.018;8.542;2022-10-10T13:04:07;11.23;;;3.80;;
3054;SDS011;1537;52.018;8.542;2022-10-10T13:07:31;8.67;;;3.27;;
3054;SDS011;1537;52.018;8.542;2022-10-10T13:11:04;6.37;;;2.97;;
3054;SDS011;1537;52.018;8.542;2022-10-10T13:14:36;11.70;;;3.13;;
3054;SDS011;1537;52.018;8.542;2022-10-10T13:18:02;7.63;;;3.40;;
3054;SDS011;1537;52.018;8.542;2022-10-10T13:21:27;6.13;;;3.30;;
3054;SDS011;1537;52.018;8.542;2022-10-10T13:24:53;8.40;;;3.10;;
3054;SDS011;1537;52.018;8.542;2022-10-10T13:28:18;12.33;;;3.50;;
3054;SDS011;1537;52.018;8.542;2022-10-10T13:31:43;8.10;;;2.97;;
3054;SDS011;1537;52.018;8.542;2022-10-10T13:35:12;10.57;;;3.10;;
3054;SDS011;1537;52.018;8.542;2022-10-10T13:38:38;10.20;;;3.10;;
3054;SDS011;1537;52.018;8.542;2022-10-10T13:42:02;5.70;;;2.67;;
3054;SDS011;1537;52.018;8.542;2022-10-10T13:45:31;9.37;;;3.43;;
3054;SDS011;1537;52.018;8.542;2022-10-10T13:49:21;5.60;;;2.70;;
3054;SDS011;1537;52.018;8.542;2022-10-10T13:52:47;9.33;;;3.30;;
3054;SDS011;1537;52.018;8.542;2022-10-10T13:56:12;7.80;;;3.50;;
3054;SDS011;1537;52.018;8.542;2022-10-10T13:59:39;6.00;;;2.73;;
3054;SDS011;1537;52.018;8.542;2022-10-10T14:03:10;7.90;;;3.03;;
3054;SDS011;1537;52.018;8.542;2022-10-10T14:06:36;7.70;;;2.70;;
3054;SDS011;1537;52.018;8.542;2022-10-10T14:10:03;6.00;;;2.47;;
3054;SDS011;1537;52.018;8.542;2022-10-10T14:13:29;9.77;;;3.80;;
3054;SDS011;1537;52.018;8.542;2022-10-10T14:16:58;7.70;;;3.00;;
3054;SDS011;1537;52.018;8.542;2022-10-10T14:20:22;8.50;;;3.30;;
3054;SDS011;1537;52.018;8.542;2022-10-10T14:23:46;8.83;;;2.47;;
3054;SDS011;1537;52.018;8.542;2022-10-10T14:27:13;8.70;;;3.00;;
3054;SDS011;1537;52.018;8.542;2022-10-10T14:30:42;10.77;;;2.70;;
3054;SDS011;1537;52.018;8.542;2022-10-10T14:34:07;9.77;;;4.03;;
3054;SDS011;1537;52.018;8.542;2022-10-10T14:37:31;8.40;;;3.20;;
3054;SDS011;1537;52.018;8.542;2022-10-10T14:40:59;7.93;;;3.30;;
3054;SDS011;1537;52.018;8.542;2022-10-10T14:44:25;9.40;;;3.30;;
3054;SDS011;1537;52.018;8.542;2022-10-10T14:47:48;10.50;;;3.30;;
3054;SDS011;1537;52.018;8.542;2022-10-10T14:51:13;8.67;;;3.83;;
3054;SDS011;1537;52.018;8.542;2022-10-10T14:54:56;9.10;;;3.50;;
3054;SDS011;1537;52.018;8.542;2022-10-10T14:58:20;7.60;;;3.10;;
3054;SDS011;1537;52.018;8.542;2022-10-10T15:01:46;7.33;;;3.23;;
3054;SDS011;1537;52.018;8.542;2022-10-10T15:05:11;8.57;;;3.63;;
3054;SDS011;1537;52.018;8.542;2022-10-10T15:08:35;10.13;;;3.40;;
3054;SDS011;1537;52.018;8.542;2022-10-10T15:11:58;6.93;;;3.13;;
3054;SDS011;1537;52.018;8.542;2022-10-10T15:15:22;8.20;;;3.60;;
3054;SDS011;1537;52.018;8.542;2022-10-10T15:18:47;10.00;;;3.20;;
3054;SDS011;1537;52.018;8.542;2022-10-10T15:22:15;9.07;;;3.23;;
3054;SDS011;1537;52.018;8.542;2022-10-10T15:25:40;8.23;;;3.00;;
3054;SDS011;1537;52.018;8.542;2022-10-10T15:29:05;6.83;;;3.40;;
3054;SDS011;1537;52.018;8.542;2022-10-10T15:32:28;10.70;;;3.70;;
3054;SDS011;1537;52.018;8.542;2022-10-10T15:35:57;8.93;;;3.27;;
3054;SDS011;1537;52.018;8.542;2022-10-10T15:39:40;6.17;;;3.10;;
3054;SDS011;1537;52.018;8.542;2022-10-10T15:43:05;10.57;;;3.47;;
3054;SDS011;1537;52.018;8.542;2022-10-10T15:46:30;5.90;;;3.13;;
3054;SDS011;1537;52.018;8.542;2022-10-10T15:49:54;8.60;;;3.70;;
3054;SDS011;1537;52.018;8.542;2022-10-10T15:53:19;9.93;;;3.47;;
3054;SDS011;1537;52.018;8.542;2022-10-10T15:56:43;12.13;;;4.60;;
3054;SDS011;1537;52.018;8.542;2022-10-10T16:00:07;14.87;;;6.57;;
3054;SDS011;1537;52.018;8.542;2022-10-10T16:03:39;20.60;;;15.13;;
3054;SDS011;1537;52.018;8.542;2022-10-10T16:07:03;14.23;;;6.63;;
3054;SDS011;1537;52.018;8.542;2022-10-10T16:10:49;8.23;;;6.10;;
3054;SDS011;1537;52.018;8.542;2022-10-10T16:14:12;9.47;;;4.60;;
3054;SDS011;1537;52.018;8.542;2022-10-10T16:17:36;10.30;;;4.70;;
3054;SDS011;1537;52.018;8.542;2022-10-10T16:21:00;9.43;;;4.17;;
3054;SDS011;1537;52.018;8.542;2022-10-10T16:24:26;7.83;;;4.03;;
3054;SDS011;1537;52.018;8.542;2022-10-10T16:27:51;9.90;;;5.10;;
3054;SDS011;1537;52.018;8.542;2022-10-10T16:31:15;11.13;;;4.70;;
3054;SDS011;1537;52.018;8.542;2022-10-10T16:34:40;10.20;;;4.87;;
3054;SDS011;1537;52.018;8.542;2022-10-10T16:38:04;13.40;;;6.73;;
3054;SDS011;1537;52.018;8.542;2022-10-10T16:41:29;16.40;;;9.17;;
3054;SDS011;1537;52.018;8.542;2022-10-10T16:45:10;11.13;;;6.43;;
3054;SDS011;1537;52.018;8.542;2022-10-10T16:48:34;15.73;;;8.97;;
3054;SDS011;1537;52.018;8.542;2022-10-10T16:52:00;9.20;;;5.00;;
3054;SDS011;1537;52.018;8.542;2022-10-10T16:55:23;11.43;;;6.57;;
3054;SDS011;1537;52.018;8.542;2022-10-10T16:58:47;14.30;;;8.10;;
3054;SDS011;1537;52.018;8.542;2022-10-10T17:02:13;12.37;;;7.53;;
3054;SDS011;1537;52.018;8.542;2022-10-10T17:05:37;12.17;;;7.70;;
3054;SDS011;1537;52.018;8.542;2022-10-10T17:09:01;15.40;;;11.97;;
3054;SDS011;1537;52.018;8.542;2022-10-10T17:12:27;10.50;;;8.30;;
3054;SDS011;1537;52.018;8.542;2022-10-10T17:15:50;16.20;;;9.53;;
3054;SDS011;1537;52.018;8.542;2022-10-10T17:19:15;12.13;;;9.23;;
3054;SDS011;1537;52.018;8.542;2022-10-10T17:22:39;11.90;;;8.13;;
3054;SDS011;1537;52.018;8.542;2022-10-10T17:26:04;12.73;;;7.70;;
3054;SDS011;1537;52.018;8.542;2022-10-10T17:29:29;12.70;;;8.00;;
3054;SDS011;1537;52.018;8.542;2022-10-10T17:32:52;12.80;;;8.07;;
3054;SDS011;1537;52.018;8.542;2022-10-10T17:36:18;10.67;;;8.87;;
3054;SDS011;1537;52.018;8.542;2022-10-10T17:40:04;10.90;;;9.50;;
3054;SDS011;1537;52.018;8.542;2022-10-10T17:43:29;13.80;;;8.13;;
3054;SDS011;1537;52.018;8.542;2022-10-10T17:46:54;13.13;;;8.47;;
3054;SDS011;1537;52.018;8.542;2022-10-10T17:50:18;20.33;;;11.53;;
3054;SDS011;1537;52.018;8.542;2022-10-10T17:53:43;21.20;;;19.30;;
3054;SDS011;1537;52.018;8.542;2022-10-10T17:57:07;20.30;;;15.50;;
3054;SDS011;1537;52.018;8.542;2022-10-10T18:00:31;12.47;;;10.30;;
3054;SDS011;1537;52.018;8.542;2022-10-10T18:03:55;12.20;;;9.23;;
3054;SDS011;1537;52.018;8.542;2022-10-10T18:07:19;12.23;;;10.10;;
3054;SDS011;1537;52.018;8.542;2022-10-10T18:10:45;12.90;;;9.93;;
3054;SDS011;1537;52.018;8.542;2022-10-10T18:14:09;10.40;;;7.73;;
3054;SDS011;1537;52.018;8.542;2022-10-10T18:17:33;14.10;;;7.50;;
3054;SDS011;1537;52.018;8.542;2022-10-10T18:20:58;9.60;;;5.40;;
3054;SDS011;1537;52.018;8.542;2022-10-10T18:24:23;40.90;;;8.63;;
3054;SDS011;1537;52.018;8.542;2022-10-10T18:27:49;13.67;;;7.20;;
3054;SDS011;1537;52.018;8.542;2022-10-10T18:31:13;9.80;;;5.37;;
3054;SDS011;1537;52.018;8.542;2022-10-10T18:34:38;21.93;;;5.60;;
3054;SDS011;1537;52.018;8.542;2022-10-10T18:38:02;12.50;;;4.90;;
3054;SDS011;1537;52.018;8.542;2022-10-10T18:41:26;13.33;;;4.80;;
3054;SDS011;1537;52.018;8.542;2022-10-10T18:44:58;9.43;;;4.70;;
3054;SDS011;1537;52.018;8.542;2022-10-10T18:48:21;16.70;;;5.20;;
3054;SDS011;1537;52.018;8.542;2022-10-10T18:51:45;10.83;;;4.40;;
3054;SDS011;1537;52.018;8.542;2022-10-10T18:55:09;12.57;;;4.87;;
3054;SDS011;1537;52.018;8.542;2022-10-10T18:58:38;13.73;;;5.30;;
3054;SDS011;1537;52.018;8.542;2022-10-10T19:02:04;11.73;;;4.93;;
3054;SDS011;1537;52.018;8.542;2022-10-10T19:05:27;13.20;;;4.30;;
3054;SDS011;1537;52.018;8.542;2022-10-10T19:08:52;15.23;;;5.30;;
3054;SDS011;1537;52.018;8.542;2022-10-10T19:12:17;15.97;;;5.03;;
3054;SDS011;1537;52.018;8.542;2022-10-10T19:15:41;14.43;;;4.57;;
3054;SDS011;1537;52.018;8.542;2022-10-10T19:19:06;12.33;;;4.90;;
3054;SDS011;1537;52.018;8.542;2022-10-10T19:22:30;19.50;;;5.03;;
3054;SDS011;1537;52.018;8.542;2022-10-10T19:25:55;16.30;;;5.30;;
3054;SDS011;1537;52.018;8.542;2022-10-10T19:29:23;14.37;;;5.90;;
3054;SDS011;1537;52.018;8.542;2022-10-10T19:32:47;11.03;;;4.90;;
3054;SDS011;1537;52.018;8.542;2022-10-10T19:36:12;14.03;;;5.63;;
3054;SDS011;1537;52.018;8.542;2022-10-10T19:39:36;14.70;;;4.90;;
3054;SDS011;1537;52.018;8.542;2022-10-10T19:43:00;14.87;;;5.53;;
3054;SDS011;1537;52.018;8.542;2022-10-10T19:46:24;14.13;;;5.40;;
3054;SDS011;1537;52.018;8.542;2022-10-10T19:49:48;10.10;;;5.10;;
3054;SDS011;1537;52.018;8.542;2022-10-10T19:53:14;14.03;;;4.80;;
3054;SDS011;1537;52.018;8.542;2022-10-10T19:56:39;8.97;;;4.10;;
3054;SDS011;1537;52.018;8.542;2022-10-10T20:00:03;10.03;;;4.47;;
3054;SDS011;1537;52.018;8.542;2022-10-10T20:03:32;12.10;;;5.10;;
3054;SDS011;1537;52.018;8.542;2022-10-10T20:06:56;19.83;;;5.17;;
3054;SDS011;1537;52.018;8.542;2022-10-10T20:10:21;17.90;;;4.47;;
3054;SDS011;1537;52.018;8.542;2022-10-10T20:13:45;16.97;;;4.17;;
3054;SDS011;1537;52.018;8.542;2022-10-10T20:17:12;11.70;;;4.30;;
3054;SDS011;1537;52.018;8.542;2022-10-10T20:20:38;11.63;;;4.37;;
3054;SDS011;1537;52.018;8.542;2022-10-10T20:24:03;14.37;;;4.63;;
3054;SDS011;1537;52.018;8.542;2022-10-10T20:27:30;13.40;;;4.87;;
3054;SDS011;1537;52.018;8.542;2022-10-10T20:30:53;14.30;;;4.33;;
3054;SDS011;1537;52.018;8.542;2022-10-10T20:34:17;15.53;;;5.10;;
3054;SDS011;1537;52.018;8.542;2022-10-10T20:37:41;14.50;;;4.87;;
3054;SDS011;1537;52.018;8.542;2022-10-10T20:41:04;10.03;;;5.13;;
3054;SDS011;1537;52.018;8.542;2022-10-10T20:44:31;61.70;;;6.97;;
3054;SDS011;1537;52.018;8.542;2022-10-10T20:47:54;8.20;;;4.30;;
3054;SDS011;1537;52.018;8.542;2022-10-10T20:51:18;12.03;;;4.37;;
3054;SDS011;1537;52.018;8.542;2022-10-10T20:54:41;14.13;;;5.00;;
3054;SDS011;1537;52.018;8.542;2022-10-10T20:58:05;11.80;;;4.70;;
3054;SDS011;1537;52.018;8.542;2022-10-10T21:01:30;11.03;;;4.10;;
3054;SDS011;1537;52.018;8.542;2022-10-10T21:04:54;9.83;;;4.17;;
3054;SDS011;1537;52.018;8.542;2022-10-10T21:08:17;9.97;;;5.20;;
3054;SDS011;1537;52.018;8.542;2022-10-10T21:11:41;17.17;;;6.00;;
3054;SDS011;1537;52.018;8.542;2022-10-10T21:15:11;11.67;;;4.73;;
3054;SDS011;1537;52.018;8.542;2022-10-10T21:18:36;19.80;;;4.53;;
3054;SDS011;1537;52.018;8.542;2022-10-10T21:22:00;16.50;;;4.93;;
3054;SDS011;1537;52.018;8.542;2022-10-10T21:25:24;15.00;;;4.60;;
3054;SDS011;1537;52.018;8.542;2022-10-10T21:28:48;18.13;;;4.80;;